KSCR/SCR METAR and TAF weather

Enter ICAO airport designator
Station Type Date Time Source
KSCR METAR 2022/12/08 13:15 UTC NOAA

KSCR 081315Z AUTO 04008KT 10SM BKN006 OVC070 14/14 A3023 RMK AO2 T01370137


Station Type Date Time Source
KSCR Decoded METAR 2022/12/08 13:15 UTC NOAA

Station name not available
Dec 08, 2022 - 08:15 AM EST / 2022.12.08 1315 UTC
Wind: from the NE (040 degrees) at 9 MPH (8 KT):0
Visibility: 10 mile(s):0
Sky conditions: overcast
Temperature: 56.7 F (13.7 C)
Dew Point: 56.7 F (13.7 C)
Relative Humidity: 100%
Pressure (altimeter): 30.23 in. Hg (1023 hPa)
ob: KSCR 081315Z AUTO 04008KT 10SM BKN006 OVC070 14/14 A3023 RMK AO2 T01370137
cycle: 13

Station Type Date Time Source
KSCR TAF UTC NOAA

Error!

Example: see airport list